Time;durP1;ratioP1;P1;durP2;ratioP2;P2;SDS_P1;SDS_P2;PMS_P1;PMS_P2;Temp;Humidity;BMP_temperature;BMP_pressure;BME280_temperature;BME280_humidity;BME280_pressure;Samples;Min_cycle;Max_cycle;Signal;HPM_P1;HPM_P2
2022/06/05 00:01:31;;;;;;;;;;;;;;;23.81;29.47;100663.09;5096689;28;20342;-69
2022/06/05 00:04:02;;;;;;;;;;;;;;;23.81;29.40;100668.56;5078610;28;19923;-69
2022/06/05 00:06:28;;;;;;;;;;;;;;;23.81;29.47;100671.28;5096707;28;20238;-69
2022/06/05 00:09:05;;;;;;;;;;;;;;;23.79;29.31;100676.16;5096220;28;19916;-68
2022/06/05 00:11:32;;;;;;;;;;;;;;;23.79;29.46;100665.25;5078874;28;19923;-68
2022/06/05 00:13:58;;;;;;;;;;;;;;;23.78;29.44;100660.91;5095932;28;19920;-68
2022/06/05 00:16:25;;;;;;;;;;;;;;;23.80;29.20;100661.44;5078507;28;19916;-68
2022/06/05 00:18:50;;;;;;;;;;;;;;;23.80;29.23;100658.72;5096589;28;19916;-68
2022/06/05 00:21:15;;;;;;;;;;;;;;;23.80;29.37;100655.16;5095849;28;19962;-69
2022/06/05 00:23:40;;;;;;;;;;;;;;;23.80;29.31;100652.41;5096020;28;19936;-69
2022/06/05 00:26:05;;;;;;;;;;;;;;;23.79;29.38;100651.59;5095625;28;19920;-68
2022/06/05 00:28:33;;;;;;;;;;;;;;;23.79;29.07;100648.06;5096002;28;19923;-69
2022/06/05 00:30:59;;;;;;;;;;;;;;;23.79;29.38;100651.59;5095643;28;20378;-68
2022/06/05 00:33:27;;;;;;;;;;;;;;;23.79;29.17;100654.34;5096078;28;19935;-69
2022/06/05 00:35:57;;;;;;;;;;;;;;;23.79;29.32;100657.06;5096177;28;20025;-68
2022/06/05 00:38:31;;;;;;;;;;;;;;;23.79;29.09;100657.06;5095711;28;20011;-68
2022/06/05 00:41:14;;;;;;;;;;;;;;;23.78;29.10;100654.59;5095461;28;19966;-68
2022/06/05 00:43:40;;;;;;;;;;;;;;;23.78;29.07;100658.16;5095502;28;19923;-68
2022/06/05 00:46:05;;;;;;;;;;;;;;;23.78;29.03;100655.44;5095459;28;19916;-68
2022/06/05 00:48:30;;;;;;;;;;;;;;;23.77;29.11;100656.53;5095729;28;19916;-68
2022/06/05 00:50:55;;;;;;;;;;;;;;;23.78;29.04;100651.88;5096064;28;19938;-68
2022/06/05 00:53:21;;;;;;;;;;;;;;;23.79;28.93;100657.06;5095697;28;19920;-68
2022/06/05 00:55:47;;;;;;;;;;;;;;;23.79;28.96;100657.06;5095437;28;19923;-68
2022/06/05 00:58:13;;;;;;;;;;;;;;;23.79;29.04;100651.59;5095516;28;19920;-68
2022/06/05 01:00:39;;;;;;;;;;;;;;;23.79;28.97;100656.25;5076934;28;20397;-68
2022/06/05 01:03:05;;;;;;;;;;;;;;;23.77;29.07;100653.78;5077064;28;19916;-68
2022/06/05 01:05:31;;;;;;;;;;;;;;;23.77;29.01;100645.59;5095405;28;19916;-68
2022/06/05 01:07:57;;;;;;;;;;;;;;;23.78;29.12;100649.97;5095316;28;19916;-68
2022/06/05 01:10:22;;;;;;;;;;;;;;;23.78;29.05;100655.44;5095304;28;19944;-68
2022/06/05 01:13:05;;;;;;;;;;;;;;;23.78;28.90;100651.88;5094957;28;19920;-68
2022/06/05 01:15:42;;;;;;;;;;;;;;;23.78;29.12;100654.59;5095097;28;19916;-68
2022/06/05 01:18:07;;;;;;;;;;;;;;;23.77;28.98;100653.78;5095008;28;20029;-68
2022/06/05 01:20:34;;;;;;;;;;;;;;;23.78;28.85;100660.91;5095050;28;19916;-68
2022/06/05 01:23:17;;;;;;;;;;;;;;;23.78;29.28;100651.88;5094647;28;19923;-68
2022/06/05 01:25:48;;;;;;;;;;;;;;;23.77;28.98;100653.78;5094571;28;20337;-68
2022/06/05 01:28:14;;;;;;;;;;;;;;;23.77;28.94;100648.34;5076872;28;19916;-68
2022/06/05 01:30:49;;;;;;;;;;;;;;;23.77;29.06;100640.16;5076772;28;19969;-70
2022/06/05 01:33:17;;;;;;;;;;;;;;;23.76;28.92;100643.94;5094442;28;19924;-69
2022/06/05 01:35:42;;;;;;;;;;;;;;;23.77;29.25;100637.41;5076642;28;19920;-69
2022/06/05 01:38:09;;;;;;;;;;;;;;;23.77;28.97;100642.88;5094617;28;19973;-68
2022/06/05 01:40:35;;;;;;;;;;;;;;;23.77;28.96;100642.06;5076362;28;19939;-68
2022/06/05 01:43:02;;;;;;;;;;;;;;;23.78;29.27;100635.50;5094324;28;20358;-68
2022/06/05 01:45:42;;;;;;;;;;;;;;;23.76;29.15;100641.22;5076264;28;19916;-68
2022/06/05 01:48:09;;;;;;;;;;;;;;;23.78;28.90;100638.22;5095246;28;20070;-68
2022/06/05 01:50:38;;;;;;;;;;;;;;;23.77;28.86;100651.06;5076693;28;19940;-68
2022/06/05 01:53:22;;;;;;;;;;;;;;;23.77;29.08;100648.34;5078558;28;19920;-68
2022/06/05 01:55:47;;;;;;;;;;;;;;;23.77;28.99;100658.44;5076065;28;19924;-68
2022/06/05 01:58:13;;;;;;;;;;;;;;;23.77;28.86;100667.44;5094479;28;19923;-68
2022/06/05 02:00:38;;;;;;;;;;;;;;;23.77;28.98;100672.88;5076448;28;20281;-68
2022/06/05 02:03:17;;;;;;;;;;;;;;;23.77;28.85;100675.63;5094324;28;19916;-68
2022/06/05 02:05:51;;;;;;;;;;;;;;;23.78;28.90;100681.88;5094692;28;19923;-68
2022/06/05 02:08:20;;;;;;;;;;;;;;;23.76;28.94;100684.06;5076211;28;20382;-68
2022/06/05 02:10:47;;;;;;;;;;;;;;;23.76;28.88;100684.88;5094321;28;19928;-68
2022/06/05 02:13:13;;;;;;;;;;;;;;;23.76;28.77;100687.63;5076296;28;19920;-68
2022/06/05 02:15:38;;;;;;;;;;;;;;;23.77;28.79;100691.19;5093747;28;19916;-68
2022/06/05 02:18:05;;;;;;;;;;;;;;;23.77;28.93;100685.72;5093870;28;19916;-68
2022/06/05 02:20:30;;;;;;;;;;;;;;;23.75;28.99;100688.72;5076095;28;19916;-68
2022/06/05 02:22:56;;;;;;;;;;;;;;;23.76;28.90;100684.88;5076066;28;19923;-68
2022/06/05 02:25:22;;;;;;;;;;;;;;;23.77;28.93;100691.19;5093754;28;20553;-69
2022/06/05 02:27:47;;;;;;;;;;;;;;;23.77;28.71;100691.19;5094059;28;19974;-68
2022/06/05 02:30:13;;;;;;;;;;;;;;;23.76;28.90;100690.34;5093658;28;19952;-69
2022/06/05 02:32:49;;;;;;;;;;;;;;;23.76;28.91;100687.63;5075839;28;19970;-68
2022/06/05 02:35:32;;;;;;;;;;;;;;;23.76;28.91;100701.25;5075872;28;19916;-68
2022/06/05 02:38:01;;;;;;;;;;;;;;;23.75;28.90;100699.63;5093830;28;19920;-68
2022/06/05 02:40:32;;;;;;;;;;;;;;;23.74;28.78;100708.09;5093952;28;20371;-68
2022/06/05 02:42:57;;;;;;;;;;;;;;;23.75;28.97;100707.81;5094025;28;19916;-68
2022/06/05 02:45:25;;;;;;;;;;;;;;;23.75;28.91;100705.09;5098061;28;19938;-70
2022/06/05 02:47:56;;;;;;;;;;;;;;;23.75;29.06;100709.72;5080067;28;19920;-68
2022/06/05 02:50:24;;;;;;;;;;;;;;;23.75;29.00;100715.16;5097677;28;19945;-68
2022/06/05 02:52:52;;;;;;;;;;;;;;;23.75;28.91;100710.56;5079985;28;19920;-68
2022/06/05 02:55:19;;;;;;;;;;;;;;;23.75;29.18;100713.28;5079655;28;19953;-68
2022/06/05 02:57:44;;;;;;;;;;;;;;;23.74;29.12;100714.34;5097838;28;19916;-68
2022/06/05 03:00:11;;;;;;;;;;;;;;;23.74;28.94;100717.09;5097509;28;19916;-68
2022/06/05 03:05:20;;;;;;;;;;;;;;;23.73;29.11;100718.19;5097790;28;19969;-68
2022/06/05 03:07:45;;;;;;;;;;;;;;;23.73;28.92;100718.19;5097694;28;19924;-68
2022/06/05 03:10:10;;;;;;;;;;;;;;;23.75;29.04;100715.16;5097650;28;19916;-68
2022/06/05 03:12:36;;;;;;;;;;;;;;;23.75;28.88;100724.19;5097539;28;20266;-68
2022/06/05 03:15:01;;;;;;;;;;;;;;;23.75;28.99;100726.09;5097399;28;19916;-68
2022/06/05 03:17:28;;;;;;;;;;;;;;;23.75;28.88;100717.91;5097485;28;19916;-68
2022/06/05 03:19:53;;;;;;;;;;;;;;;23.74;28.93;100724.47;5097486;28;19916;-69
2022/06/05 03:22:18;;;;;;;;;;;;;;;23.74;28.82;100719.00;5079025;28;19921;-69
2022/06/05 03:24:44;;;;;;;;;;;;;;;23.74;28.99;100729.91;5096748;28;19936;-68
2022/06/05 03:27:09;;;;;;;;;;;;;;;23.74;28.93;100727.19;5097383;28;20014;-68
2022/06/05 03:29:34;;;;;;;;;;;;;;;23.73;28.75;100734.56;5097208;28;20255;-68
2022/06/05 03:31:59;;;;;;;;;;;;;;;23.74;28.88;100730.72;5097231;28;19916;-68
2022/06/05 03:34:25;;;;;;;;;;;;;;;23.73;28.86;100734.56;5097105;28;20002;-68
2022/06/05 03:36:50;;;;;;;;;;;;;;;23.73;28.82;100733.72;5096769;28;19923;-68
2022/06/05 03:39:15;;;;;;;;;;;;;;;23.74;28.82;100736.19;5096747;28;19924;-68
2022/06/05 03:41:40;;;;;;;;;;;;;;;23.73;28.81;100731.84;5097569;28;19916;-68
2022/06/05 03:44:06;;;;;;;;;;;;;;;23.73;28.86;100723.66;5097014;28;20386;-68
2022/06/05 03:46:33;;;;;;;;;;;;;;;23.73;28.89;100731.00;5096919;28;20275;-68
2022/06/05 03:48:58;;;;;;;;;;;;;;;23.72;28.91;100732.09;5096548;28;19916;-68
2022/06/05 03:51:24;;;;;;;;;;;;;;;23.72;28.99;100732.91;5096569;28;19916;-68
2022/06/05 03:53:49;;;;;;;;;;;;;;;23.74;28.82;100730.72;5096828;28;19954;-68
2022/06/05 03:56:21;;;;;;;;;;;;;;;23.73;28.79;100731.84;5095844;28;19923;-68
2022/06/05 03:58:46;;;;;;;;;;;;;;;23.72;28.75;100724.72;5096620;28;19969;-68
2022/06/05 04:01:12;;;;;;;;;;;;;;;23.74;28.84;100736.19;5096695;28;20375;-68
2022/06/05 04:03:37;;;;;;;;;;;;;;;23.73;28.65;100729.09;5096576;28;20389;-68
2022/06/05 04:06:06;;;;;;;;;;;;;;;23.75;28.72;100731.53;5096202;28;20375;-68
2022/06/05 04:08:31;;;;;;;;;;;;;;;23.74;28.51;100738.91;5096511;28;20359;-68
2022/06/05 04:10:56;;;;;;;;;;;;;;;23.74;28.57;100743.56;5078425;28;19923;-68
2022/06/05 04:13:21;;;;;;;;;;;;;;;23.74;28.44;100743.56;5096420;28;19916;-68
2022/06/05 04:15:46;;;;;;;;;;;;;;;23.73;28.46;100748.22;5096443;28;19919;-68
2022/06/05 04:18:12;;;;;;;;;;;;;;;23.74;28.34;100740.84;5096181;28;20378;-68
2022/06/05 04:20:38;;;;;;;;;;;;;;;23.73;28.39;100741.91;5096368;28;20324;-68
2022/06/05 04:23:03;;;;;;;;;;;;;;;23.74;28.18;100738.09;5096135;28;20015;-68
2022/06/05 04:25:29;;;;;;;;;;;;;;;23.73;28.19;100734.56;5095688;28;20301;-68
2022/06/05 04:27:55;;;;;;;;;;;;;;;23.73;28.30;100739.19;5095886;28;19916;-68
2022/06/05 04:30:20;;;;;;;;;;;;;;;23.73;28.14;100734.56;5096111;28;19916;-69
2022/06/05 04:32:45;;;;;;;;;;;;;;;23.73;27.98;100740.03;5096074;28;20401;-69
2022/06/05 04:35:10;;;;;;;;;;;;;;;23.74;28.33;100738.09;5095851;28;20243;-69
2022/06/05 04:37:36;;;;;;;;;;;;;;;23.75;28.31;100747.91;5095935;28;19916;-69
2022/06/05 04:40:02;;;;;;;;;;;;;;;23.75;28.16;100753.38;5095889;28;20028;-69
2022/06/05 04:42:27;;;;;;;;;;;;;;;23.75;28.16;100750.63;5095725;28;19920;-69
2022/06/05 04:44:53;;;;;;;;;;;;;;;23.74;27.98;100763.47;5095878;28;20393;-69
2022/06/05 04:47:18;;;;;;;;;;;;;;;23.73;28.03;100755.56;5096242;28;20258;-69
2022/06/05 04:49:43;;;;;;;;;;;;;;;23.73;28.17;100756.41;5095761;28;19916;-69
2022/06/05 04:52:08;;;;;;;;;;;;;;;23.74;28.06;100749.81;5095546;28;19920;-69
2022/06/05 04:54:34;;;;;;;;;;;;;;;23.73;28.05;100756.41;5095508;28;20358;-69
2022/06/05 04:56:59;;;;;;;;;;;;;;;23.73;28.24;100761.84;5095498;28;20247;-69
2022/06/05 04:59:24;;;;;;;;;;;;;;;23.73;28.04;100759.13;5095118;28;20239;-69
2022/06/05 05:01:49;;;;;;;;;;;;;;;23.74;28.03;100757.19;5095477;28;19927;-69
2022/06/05 05:04:15;;;;;;;;;;;;;;;23.73;28.07;100761.84;5095603;28;20282;-69
2022/06/05 05:06:40;;;;;;;;;;;;;;;23.74;28.07;100762.66;5094508;28;19916;-69
2022/06/05 05:09:06;;;;;;;;;;;;;;;23.73;28.17;100753.66;5094855;28;19916;-69
2022/06/05 05:11:31;;;;;;;;;;;;;;;23.73;28.24;100764.56;5095101;28;19916;-69
2022/06/05 05:13:56;;;;;;;;;;;;;;;23.73;28.16;100756.41;5094926;28;19923;-69
2022/06/05 05:16:22;;;;;;;;;;;;;;;23.74;28.14;100751.75;5095176;28;19916;-69
2022/06/05 05:18:47;;;;;;;;;;;;;;;23.74;28.20;100752.56;5095246;28;19920;-69
2022/06/05 05:21:14;;;;;;;;;;;;;;;23.74;28.13;100758.00;5095176;28;20373;-70
2022/06/05 05:23:40;;;;;;;;;;;;;;;23.73;28.13;100750.94;5094846;28;19920;-69
2022/06/05 05:26:06;;;;;;;;;;;;;;;23.74;28.31;100757.19;5094738;28;20121;-69
2022/06/05 05:28:31;;;;;;;;;;;;;;;23.74;28.06;100747.09;5094986;28;19923;-69
2022/06/05 05:30:56;;;;;;;;;;;;;;;23.74;28.08;100752.56;5094964;28;19979;-68
2022/06/05 05:33:21;;;;;;;;;;;;;;;23.75;27.90;100754.22;5094926;28;19916;-68
2022/06/05 05:35:47;;;;;;;;;;;;;;;23.77;27.96;100756.69;5094726;28;19920;-69
2022/06/05 05:38:12;;;;;;;;;;;;;;;23.75;27.96;100753.38;5094712;28;19920;-68
2022/06/05 05:43:21;;;;;;;;;;;;;;;23.74;28.23;100768.13;5094468;28;20008;-68
2022/06/05 05:45:46;;;;;;;;;;;;;;;23.76;28.20;100768.66;5094765;28;19974;-70
2022/06/05 05:48:11;;;;;;;;;;;;;;;23.75;28.06;100765.13;5094620;28;19920;-68
2022/06/05 05:50:37;;;;;;;;;;;;;;;23.76;28.05;100771.41;5094470;28;20326;-68
2022/06/05 05:53:02;;;;;;;;;;;;;;;23.76;28.12;100771.41;5094840;28;19971;-68
2022/06/05 05:55:27;;;;;;;;;;;;;;;23.77;28.22;100767.59;5094471;28;19920;-68
2022/06/05 05:57:52;;;;;;;;;;;;;;;23.76;28.12;100766.75;5094468;28;19995;-68
2022/06/05 06:00:18;;;;;;;;;;;;;;;23.76;28.32;100772.22;5094348;28;20424;-68
2022/06/05 06:02:43;;;;;;;;;;;;;;;23.75;28.23;100767.84;5094411;28;20267;-68
2022/06/05 06:05:10;;;;;;;;;;;;;;;23.78;28.33;100769.22;5094041;28;20008;-68
2022/06/05 06:07:36;;;;;;;;;;;;;;;23.83;28.16;100765.72;5075914;28;20355;-68
2022/06/05 06:10:01;;;;;;;;;;;;;;;23.85;28.04;100771.72;5094242;28;19951;-68
2022/06/05 06:12:26;;;;;;;;;;;;;;;23.86;28.12;100776.13;5094021;28;20362;-68
2022/06/05 06:14:52;;;;;;;;;;;;;;;23.84;27.95;100772.84;5094133;28;19955;-68
2022/06/05 06:17:17;;;;;;;;;;;;;;;23.85;27.92;100772.53;5094221;28;19920;-68
2022/06/05 06:19:42;;;;;;;;;;;;;;;23.89;27.82;100773.66;5093852;28;19956;-68
2022/06/05 06:22:07;;;;;;;;;;;;;;;23.88;27.88;100773.94;5094138;28;19920;-68
2022/06/05 06:24:32;;;;;;;;;;;;;;;23.86;27.72;100773.38;5093435;28;19917;-68
2022/06/05 06:26:58;;;;;;;;;;;;;;;23.85;27.73;100769.00;5093958;28;19916;-68
2022/06/05 06:29:23;;;;;;;;;;;;;;;23.87;27.73;100769.56;5075696;28;19916;-68
2022/06/05 06:31:48;;;;;;;;;;;;;;;23.87;27.55;100772.28;5094064;28;20356;-68
2022/06/05 06:34:13;;;;;;;;;;;;;;;23.85;27.75;100769.00;5094133;28;20282;-68
2022/06/05 06:36:39;;;;;;;;;;;;;;;23.84;27.67;100767.38;5094032;28;19939;-68
2022/06/05 06:39:04;;;;;;;;;;;;;;;23.85;27.46;100769.81;5093669;28;19952;-68
2022/06/05 06:41:29;;;;;;;;;;;;;;;23.86;27.44;100771.47;5093683;28;19918;-68
2022/06/05 06:43:54;;;;;;;;;;;;;;;23.84;27.40;100772.84;5093975;28;19916;-68
2022/06/05 06:46:20;;;;;;;;;;;;;;;23.91;27.40;100778.88;5076143;28;19916;-68
2022/06/05 06:48:45;;;;;;;;;;;;;;;23.89;27.20;100779.13;5094717;28;20007;-68
2022/06/05 06:51:10;;;;;;;;;;;;;;;23.92;27.26;100780.50;5093818;28;20278;-68
2022/06/05 06:53:36;;;;;;;;;;;;;;;23.88;27.04;100782.13;5094304;28;19916;-68
2022/06/05 06:56:17;;;;;;;;;;;;;;;23.87;27.19;100788.66;5094369;28;19916;-68
2022/06/05 06:58:42;;;;;;;;;;;;;;;23.84;27.20;100776.38;5094327;28;19924;-68
2022/06/05 07:01:08;;;;;;;;;;;;;;;23.85;27.13;100780.72;5094304;28;19928;-68
2022/06/05 07:03:34;;;;;;;;;;;;;;;23.86;26.99;100787.03;5094346;28;20081;-68
2022/06/05 07:06:04;;;;;;;;;;;;;;;23.87;27.15;100777.75;5094797;28;20069;-68
2022/06/05 07:08:29;;;;;;;;;;;;;;;23.81;27.25;100772.25;5094374;28;19923;-68
2022/06/05 07:10:54;;;;;;;;;;;;;;;23.80;27.20;100772.50;5094947;28;19916;-68
2022/06/05 07:13:20;;;;;;;;;;;;;;;23.81;27.22;100777.72;5095090;28;20370;-68
2022/06/05 07:15:45;;;;;;;;;;;;;;;23.84;27.15;100767.38;5096381;28;19995;-68
2022/06/05 07:18:10;;;;;;;;;;;;;;;23.81;26.93;100775.00;5094417;28;20279;-68
2022/06/05 07:20:36;;;;;;;;;;;;;;;23.81;27.12;100775.00;5093209;28;19989;-68
2022/06/05 07:23:01;;;;;;;;;;;;;;;23.81;26.92;100774.19;5093194;28;20358;-68
2022/06/05 07:25:27;;;;;;;;;;;;;;;23.84;26.85;100772.84;5093234;28;19931;-68
2022/06/05 07:27:52;;;;;;;;;;;;;;;23.87;26.91;100773.13;5094101;28;19916;-69
2022/06/05 07:30:17;;;;;;;;;;;;;;;23.87;26.80;100761.38;5093804;28;19943;-68
2022/06/05 07:32:43;;;;;;;;;;;;;;;23.88;26.79;100757.56;5096885;28;19923;-69
2022/06/05 07:35:09;;;;;;;;;;;;;;;23.89;26.57;100759.22;5096839;28;19958;-68
2022/06/05 07:37:34;;;;;;;;;;;;;;;23.87;26.81;100772.28;5096977;28;20389;-68
2022/06/05 07:39:59;;;;;;;;;;;;;;;23.89;26.63;100778.31;5096842;28;19916;-69
2022/06/05 07:42:25;;;;;;;;;;;;;;;23.86;26.70;100779.66;5096974;28;19916;-69
2022/06/05 07:44:50;;;;;;;;;;;;;;;23.88;26.30;100779.41;5096841;28;20017;-68
2022/06/05 07:47:15;;;;;;;;;;;;;;;23.84;26.35;100770.91;5096675;28;20286;-68
2022/06/05 07:49:40;;;;;;;;;;;;;;;23.85;26.40;100785.38;5096858;28;19922;-70
2022/06/05 07:54:50;;;;;;;;;;;;;;;23.84;26.64;100783.75;5096867;28;19923;-69
2022/06/05 07:57:16;;;;;;;;;;;;;;;23.83;26.34;100779.38;5096419;28;19916;-68
2022/06/05 07:59:42;;;;;;;;;;;;;;;23.84;26.37;100767.38;5097294;28;19923;-68
2022/06/05 08:02:08;;;;;;;;;;;;;;;23.86;26.39;100767.94;5096648;28;20360;-69
2022/06/05 08:04:33;;;;;;;;;;;;;;;23.86;26.20;100767.94;5096568;28;19938;-69
2022/06/05 08:06:59;;;;;;;;;;;;;;;23.86;26.19;100771.47;5096577;28;20374;-68
2022/06/05 08:09:24;;;;;;;;;;;;;;;23.85;26.07;100769.00;5096585;28;19923;-69
2022/06/05 08:11:49;;;;;;;;;;;;;;;23.86;26.17;100767.94;5096692;28;19922;-69
2022/06/05 08:14:15;;;;;;;;;;;;;;;23.87;26.17;100772.28;5096436;28;20003;-69
2022/06/05 08:16:43;;;;;;;;;;;;;;;23.89;26.12;100770.13;5096373;28;20307;-69
2022/06/05 08:19:08;;;;;;;;;;;;;;;23.91;26.02;100773.41;5096059;28;19966;-69
2022/06/05 08:21:34;;;;;;;;;;;;;;;23.91;26.18;100767.94;5095961;28;19916;-69
2022/06/05 08:23:59;;;;;;;;;;;;;;;23.92;26.42;100764.09;5096087;28;19916;-69
2022/06/05 08:26:24;;;;;;;;;;;;;;;23.94;26.10;100765.50;5095599;28;20378;-69
2022/06/05 08:28:50;;;;;;;;;;;;;;;23.94;26.28;100761.94;5096002;28;20032;-69
2022/06/05 08:31:15;;;;;;;;;;;;;;;23.94;26.07;100767.38;5096093;28;19923;-69
2022/06/05 08:33:41;;;;;;;;;;;;;;;23.95;26.02;100758.13;5095995;28;19916;-69
2022/06/05 08:36:06;;;;;;;;;;;;;;;23.95;25.83;100764.38;5096019;28;19916;-69
2022/06/05 08:41:26;;;;;;;;;;;;;;;23.98;26.04;100760.31;5095647;28;19939;-69
2022/06/05 08:44:07;;;;;;;;;;;;;;;24.00;25.81;100758.13;5077607;28;19923;-69
2022/06/05 08:46:35;;;;;;;;;;;;;;;23.99;25.93;100748.28;5095687;28;19920;-69
2022/06/05 08:49:02;;;;;;;;;;;;;;;24.00;26.14;100752.69;5078226;28;20003;-69
2022/06/05 08:51:30;;;;;;;;;;;;;;;24.00;25.75;100750.75;5077445;28;19924;-69
2022/06/05 08:54:06;;;;;;;;;;;;;;;24.02;25.95;100763.34;5095290;28;19916;-69
2022/06/05 08:56:33;;;;;;;;;;;;;;;24.02;25.85;100752.41;5095524;28;20002;-69
2022/06/05 08:59:02;;;;;;;;;;;;;;;24.03;25.91;100759.53;5077454;28;19920;-69
2022/06/05 09:01:43;;;;;;;;;;;;;;;24.04;25.80;100744.78;5077494;28;19923;-69
2022/06/05 09:04:28;;;;;;;;;;;;;;;24.05;25.73;100741.78;5077504;28;19920;-69
2022/06/05 09:07:00;;;;;;;;;;;;;;;24.07;26.06;100733.31;5094670;28;20015;-68
2022/06/05 09:09:28;;;;;;;;;;;;;;;24.06;25.76;100732.50;5078555;28;20381;-68
2022/06/05 09:11:54;;;;;;;;;;;;;;;24.07;25.77;100739.59;5077019;28;19924;-68
2022/06/05 09:14:31;;;;;;;;;;;;;;;24.07;25.82;100728.66;5077208;28;19922;-68
2022/06/05 09:16:58;;;;;;;;;;;;;;;24.07;25.79;100728.66;5095224;28;19916;-68
2022/06/05 09:19:26;;;;;;;;;;;;;;;24.08;25.76;100740.44;5077146;28;19954;-69
2022/06/05 09:21:54;;;;;;;;;;;;;;;24.08;25.58;100735.78;5095427;28;19978;-69
2022/06/05 09:24:23;;;;;;;;;;;;;;;24.08;26.03;100735.78;5076708;28;19923;-69
2022/06/05 09:26:50;;;;;;;;;;;;;;;24.09;25.79;100731.94;5095058;28;19920;-68
2022/06/05 09:29:25;;;;;;;;;;;;;;;24.08;25.83;100727.59;5076524;28;19923;-68
2022/06/05 09:31:50;;;;;;;;;;;;;;;24.07;25.78;100734.13;5094962;28;20037;-68
2022/06/05 09:34:19;;;;;;;;;;;;;;;24.08;25.90;100735.78;5094888;28;19939;-68
2022/06/05 09:36:46;;;;;;;;;;;;;;;24.08;25.80;100740.44;5076434;28;19923;-70
2022/06/05 09:39:16;;;;;;;;;;;;;;;24.08;25.71;100729.50;5076807;28;20012;-69
2022/06/05 09:42:01;;;;;;;;;;;;;;;24.07;25.75;100723.22;5094800;28;19916;-68
2022/06/05 09:44:31;;;;;;;;;;;;;;;24.07;25.87;100716.94;5093807;28;19960;-68
2022/06/05 09:47:00;;;;;;;;;;;;;;;24.07;25.52;100712.28;5076666;28;20013;-68
2022/06/05 09:49:30;;;;;;;;;;;;;;;24.07;25.67;100717.75;5094669;28;19916;-68
2022/06/05 09:51:56;;;;;;;;;;;;;;;24.05;25.70;100724.59;5094649;28;20041;-68
2022/06/05 09:54:31;;;;;;;;;;;;;;;24.04;25.85;100722.94;5075605;28;19944;-68
2022/06/05 10:00:02;;;;;;;;;;;;;;;24.02;25.75;100709.53;5094291;28;19923;-68
2022/06/05 10:02:28;;;;;;;;;;;;;;;24.02;25.57;100706.00;5094258;28;19927;-68
2022/06/05 10:04:53;;;;;;;;;;;;;;;24.00;25.55;100707.09;5094373;28;19916;-68
2022/06/05 10:07:20;;;;;;;;;;;;;;;24.00;25.42;100695.34;5076287;28;19926;-68
2022/06/05 10:09:46;;;;;;;;;;;;;;;24.01;25.65;100697.00;5076287;28;19918;-68
2022/06/05 10:12:35;;;;;;;;;;;;;;;24.00;25.63;100698.09;5076331;28;19916;-68
2022/06/05 10:15:06;;;;;;;;;;;;;;;23.98;25.66;100697.53;5085313;28;19923;-69
2022/06/05 10:17:31;;;;;;;;;;;;;;;23.99;25.47;100688.25;5076080;28;19966;-69
2022/06/05 10:20:02;;;;;;;;;;;;;;;23.97;25.60;100674.06;5093889;28;19920;-69
2022/06/05 10:22:30;;;;;;;;;;;;;;;23.97;25.70;100677.63;5093641;28;20007;-68
2022/06/05 10:25:00;;;;;;;;;;;;;;;23.97;25.83;100672.16;5093739;28;19920;-68
2022/06/05 10:27:26;;;;;;;;;;;;;;;23.97;25.83;100668.59;5076101;28;19917;-68
2022/06/05 10:29:53;;;;;;;;;;;;;;;23.97;25.42;100671.31;5094066;28;20437;-68
2022/06/05 10:32:27;;;;;;;;;;;;;;;23.97;25.46;100676.78;5093722;28;19920;-68
2022/06/05 10:34:59;;;;;;;;;;;;;;;23.97;25.52;100672.16;5093924;28;19964;-68
2022/06/05 10:37:27;;;;;;;;;;;;;;;23.95;25.66;100668.84;5076044;28;19916;-68
2022/06/05 10:39:53;;;;;;;;;;;;;;;23.96;25.63;100666.97;5093677;28;20371;-69
2022/06/05 10:42:25;;;;;;;;;;;;;;;23.95;25.69;100665.31;5093931;28;19916;-68
2022/06/05 10:44:58;;;;;;;;;;;;;;;23.94;25.74;100669.13;5093531;28;20366;-68
2022/06/05 10:47:32;;;;;;;;;;;;;;;23.95;25.82;100676.22;5094285;28;19923;-68
2022/06/05 10:50:04;;;;;;;;;;;;;;;23.95;25.74;100670.78;5075986;28;19920;-68
2022/06/05 10:52:38;;;;;;;;;;;;;;;23.94;25.68;100666.41;5075581;28;19931;-68
2022/06/05 10:55:18;;;;;;;;;;;;;;;23.94;25.88;100660.94;5093659;28;19946;-68
2022/06/05 10:58:10;;;;;;;;;;;;;;;23.94;25.93;100658.22;5075840;28;19916;-68
2022/06/05 11:00:52;;;;;;;;;;;;;;;23.97;25.86;100668.59;5089222;28;19916;-68
2022/06/05 11:03:24;;;;;;;;;;;;;;;23.92;25.72;100655.78;5075762;28;19971;-68
2022/06/05 11:05:50;;;;;;;;;;;;;;;23.93;25.78;100653.84;5097048;28;19960;-68
2022/06/05 11:08:28;;;;;;;;;;;;;;;23.92;25.74;100654.94;5097376;28;19939;-68
2022/06/05 11:13:51;;;;;;;;;;;;;;;23.91;25.70;100653.31;5097590;28;20389;-68
2022/06/05 11:16:22;;;;;;;;;;;;;;;23.92;25.91;100638.56;5079601;28;19923;-68
2022/06/05 11:18:51;;;;;;;;;;;;;;;23.93;25.87;100629.28;5079354;28;19959;-69
2022/06/05 11:21:17;;;;;;;;;;;;;;;23.92;25.76;100639.41;5079373;28;19998;-69
2022/06/05 11:23:42;;;;;;;;;;;;;;;23.94;25.66;100636.38;5079199;28;19999;-69
2022/06/05 11:26:21;;;;;;;;;;;;;;;23.93;25.94;100634.75;5078784;28;19924;-69
2022/06/05 11:28:59;;;;;;;;;;;;;;;23.95;25.63;100632.56;5079487;28;19920;-67
2022/06/05 11:31:24;;;;;;;;;;;;;;;23.93;25.89;100632.03;5097288;28;19948;-69
2022/06/05 11:34:03;;;;;;;;;;;;;;;23.93;25.80;100634.75;5096934;28;20374;-69
2022/06/05 11:36:48;;;;;;;;;;;;;;;23.95;25.67;100624.38;5096855;28;19916;-68
2022/06/05 11:39:32;;;;;;;;;;;;;;;23.94;25.98;100617.25;5097116;28;19916;-69
2022/06/05 11:42:16;;;;;;;;;;;;;;;23.92;25.84;100617.56;5097042;28;19916;-69
2022/06/05 11:44:46;;;;;;;;;;;;;;;23.91;25.91;100617.81;5097045;28;19963;-69
2022/06/05 11:47:30;;;;;;;;;;;;;;;23.92;25.91;100617.56;5096986;28;19929;-69
2022/06/05 11:49:59;;;;;;;;;;;;;;;23.93;26.03;100607.44;5096619;28;19916;-69
2022/06/05 11:52:43;;;;;;;;;;;;;;;23.93;25.92;100604.72;5097104;28;19931;-69
2022/06/05 11:55:11;;;;;;;;;;;;;;;23.93;26.04;100597.34;5096567;28;19926;-69
2022/06/05 11:57:37;;;;;;;;;;;;;;;23.92;25.92;100598.44;5096710;28;19919;-69
2022/06/05 12:00:16;;;;;;;;;;;;;;;23.93;25.84;100596.53;5078371;28;20339;-69
2022/06/05 12:02:51;;;;;;;;;;;;;;;23.95;25.86;100602.53;5096369;28;20389;-69
2022/06/05 12:05:25;;;;;;;;;;;;;;;23.93;25.77;100594.63;5096417;28;20392;-69
2022/06/05 12:07:50;;;;;;;;;;;;;;;23.92;25.87;100586.69;5078461;28;19935;-69
2022/06/05 12:10:16;;;;;;;;;;;;;;;23.92;25.65;100573.88;5096502;28;19920;-69
2022/06/05 12:12:42;;;;;;;;;;;;;;;23.93;25.92;100582.88;5096527;28;20370;-69
2022/06/05 12:15:13;;;;;;;;;;;;;;;23.95;25.79;100572.50;5078006;28;20362;-69
2022/06/05 12:17:43;;;;;;;;;;;;;;;23.92;25.62;100568.44;5095582;28;20374;-69
2022/06/05 12:20:13;;;;;;;;;;;;;;;23.92;25.76;100567.59;5078312;28;19927;-69
2022/06/05 12:22:55;;;;;;;;;;;;;;;23.92;25.65;100562.13;5078228;28;19926;-69
2022/06/05 12:25:23;;;;;;;;;;;;;;;23.94;25.63;100566.25;5095749;28;19943;-69
2022/06/05 12:27:52;;;;;;;;;;;;;;;23.92;25.76;100559.41;5096757;28;19920;-69
2022/06/05 12:30:20;;;;;;;;;;;;;;;23.92;25.64;100556.69;5096281;28;19916;-69
2022/06/05 12:32:51;;;;;;;;;;;;;;;23.91;25.72;100555.06;5078176;28;19966;-69
2022/06/05 12:35:17;;;;;;;;;;;;;;;23.91;25.63;100552.31;5095626;28;20359;-69
2022/06/05 12:37:44;;;;;;;;;;;;;;;23.90;25.88;100558.88;5095993;28;19923;-69
2022/06/05 12:40:15;;;;;;;;;;;;;;;23.90;25.67;100556.94;5077864;28;19974;-69
2022/06/05 12:42:41;;;;;;;;;;;;;;;23.93;25.81;100541.94;5095713;28;19916;-69
2022/06/05 12:45:14;;;;;;;;;;;;;;;23.93;25.85;100553.69;5077858;28;19982;-69
2022/06/05 12:47:57;;;;;;;;;;;;;;;23.93;26.16;100547.41;5096528;28;19923;-69
2022/06/05 12:50:31;;;;;;;;;;;;;;;23.93;25.94;100552.88;5078472;28;19947;-69
2022/06/05 12:53:15;;;;;;;;;;;;;;;23.92;26.26;100540.28;5096022;28;19947;-69
2022/06/05 12:55:44;;;;;;;;;;;;;;;23.92;26.18;100545.75;5095564;28;19938;-69
2022/06/05 12:58:17;;;;;;;;;;;;;;;23.93;26.37;100547.41;5095582;28;20247;-69